Gorliz-Elexalde, Spain
Current Conditions -  °F | °C
As of 11:30 PM on Tuesday 27 Jan 2015 (Local Time) from LEBB Reporting Station
Broken Clouds Broken Clouds  
Wind Chill: 48°   Ceiling: 3800
Heat Index: 48°   Visibility: 6mi
Dew Point: 46°   Wind: 2mph
Humidity: 93%   Direction: NA
Pressure: 30.45"   Gusts: NA
Location:  43.41°N, 2.94°W
Report Text: LEBB 272230Z VRB02KT 9999 SCT025 BKN038 09/08 Q1031 NOSIG
Loading
Personal Weather Stations






























Interactive Weather Map New forecast layout! Learn more

10-Day Weather Forecast

Advertisements
Track Severe Weather on mobile